Time;durP1;ratioP1;P1;durP2;ratioP2;P2;SDS_P1;SDS_P2;PMS_P1;PMS_P2;Temp;Humidity;BMP_temperature;BMP_pressure;BME280_temperature;BME280_humidity;BME280_pressure;Samples;Min_cycle;Max_cycle;Signal;HPM_P1;HPM_P2
2023/01/17 00:01:07;;;;;;;0.80;0.70;;;;;;;1.64;100.00;95973.41;5011421;28;20403;-75
2023/01/17 00:09:51;;;;;;;0.80;0.60;;;;;;;1.80;100.00;95998.69;5015595;28;20491;-75
2023/01/17 00:12:00;;;;;;;1.27;0.70;;;;;;;1.63;100.00;96000.28;5026406;28;20044;-75
2023/01/17 00:14:26;;;;;;;1.25;0.70;;;;;;;1.60;100.00;96006.84;5029058;28;20021;-75
2023/01/17 00:16:52;;;;;;;1.27;0.65;;;;;;;1.77;100.00;96009.78;5001182;28;20457;-75
2023/01/17 01:33:50;;;;;;;1.80;0.70;;;;;;;1.80;100.00;96112.50;5033801;28;20036;-75
2023/01/17 01:36:15;;;;;;;3.83;1.00;;;;;;;1.77;100.00;96084.44;5031584;28;20083;-75
2023/01/17 01:38:41;;;;;;;4.45;0.85;;;;;;;1.92;100.00;96116.94;5014500;28;20463;-75
2023/01/17 01:41:06;;;;;;;2.53;1.02;;;;;;;1.72;100.00;96077.06;5015949;28;20028;-74
2023/01/17 01:43:48;;;;;;;3.38;0.90;;;;;;;1.89;100.00;96093.38;5034927;28;20029;-75
2023/01/17 01:46:28;;;;;;;3.20;1.08;;;;;;;1.85;100.00;96091.34;5032310;28;20032;-75
2023/01/17 01:48:57;;;;;;;1.77;0.93;;;;;;;1.80;100.00;96089.31;5020974;28;20029;-75
2023/01/17 01:51:32;;;;;;;;;;;;;;;2.00;100.00;96112.38;5031384;28;20048;-75
2023/01/17 01:54:19;;;;;;;3.60;1.42;;;;;;;1.88;100.00;96089.06;5034067;28;20367;-75
2023/01/17 01:56:48;;;;;;;1.67;0.98;;;;;;;1.87;100.00;96098.09;5022406;28;20029;-75
2023/01/17 01:59:16;;;;;;;2.47;1.42;;;;;;;1.88;100.00;96099.72;5010374;28;21963;-75
2023/01/17 02:01:41;;;;;;;3.08;1.10;;;;;;;1.80;100.00;96083.19;5013977;28;20037;-75
2023/01/17 02:04:08;;;;;;;1.67;1.08;;;;;;;1.84;100.00;96101.19;5022379;28;20029;-75
2023/01/17 02:07:11;;;;;;;2.63;1.20;;;;;;;1.96;100.00;96110.16;5002970;28;20021;-75
2023/01/17 02:09:36;;;;;;;4.32;1.00;;;;;;;1.92;100.00;96114.28;5010022;28;20097;-75
2023/01/17 02:12:03;;;;;;;3.63;1.20;;;;;;;1.97;100.00;96102.97;5019581;28;20450;-75
2023/01/17 02:14:28;;;;;;;3.75;1.40;;;;;;;1.92;100.00;96108.13;5026609;28;20032;-75
2023/01/17 02:17:26;;;;;;;6.85;1.40;;;;;;;1.93;100.00;96099.09;5031955;28;20025;-75
2023/01/17 02:20:27;;;;;;;3.22;0.98;;;;;;;1.86;100.00;96111.63;5033498;28;20090;-75
2023/01/17 02:23:30;;;;;;;3.85;0.93;;;;;;;1.87;100.00;96114.09;5012796;28;20117;-75
2023/01/17 02:25:55;;;;;;;2.42;0.90;;;;;;;1.82;100.00;96113.13;5031479;28;20025;-75
2023/01/17 02:28:50;;;;;;;3.28;1.05;;;;;;;1.88;100.00;96106.91;5018394;28;20056;-75
2023/01/17 02:31:26;;;;;;;1.13;0.80;;;;;;;1.84;100.00;96087.06;4978728;28;20128;-74
2023/01/17 02:34:05;;;;;;;2.97;0.85;;;;;;;1.80;100.00;96096.50;5028673;28;20032;-75
2023/01/17 02:36:38;;;;;;;4.72;0.95;;;;;;;1.77;100.00;96088.94;5028706;28;20083;-75
2023/01/17 02:39:19;;;;;;;3.35;1.00;;;;;;;1.77;100.00;96091.59;5022545;28;20016;-75
2023/01/17 02:41:50;;;;;;;2.38;1.00;;;;;;;1.56;100.00;96069.59;5006802;28;20112;-75
2023/01/17 02:44:18;;;;;;;2.25;1.17;;;;;;;1.66;100.00;96082.44;5030312;28;20040;-75
2023/01/17 02:46:49;;;;;;;3.58;1.08;;;;;;;1.80;100.00;96097.31;5308710;22;20037;-66
2023/01/17 02:49:16;;;;;;;3.33;1.20;;;;;;;1.86;100.00;96099.16;5020520;28;20041;-66
2023/01/17 02:52:05;;;;;;;5.70;0.90;;;;;;;1.81;100.00;96103.47;5019775;28;20030;-66
2023/01/17 02:54:37;;;;;;;1.42;0.80;;;;;;;1.78;100.00;96095.91;5019077;28;20037;-66
2023/01/17 02:57:24;;;;;;;1.88;1.10;;;;;;;1.77;100.00;96097.75;5013112;28;20033;-69
2023/01/17 02:59:59;;;;;;;2.35;1.05;;;;;;;1.73;100.00;96104.56;5006701;28;20101;-69
2023/01/17 03:05:53;;;;;;;1.50;1.08;;;;;;;1.63;100.00;96105.00;5013361;28;20057;-67
2023/01/17 03:08:19;;;;;;;2.00;0.93;;;;;;;1.56;100.00;96104.22;5009887;28;20037;-67
2023/01/17 03:10:45;;;;;;;2.80;0.88;;;;;;;1.55;100.00;96105.28;4997863;28;20034;-69
2023/01/17 03:13:11;;;;;;;3.55;1.25;;;;;;;1.51;100.00;96099.53;5003013;28;20119;-67
2023/01/17 03:15:38;;;;;;;1.70;1.13;;;;;;;1.52;100.00;96101.19;4997666;28;20022;-67
2023/01/17 03:18:10;;;;;;;2.58;1.20;;;;;;;1.58;100.00;96104.03;5001288;28;20046;-67
2023/01/17 03:20:36;;;;;;;2.67;1.20;;;;;;;1.47;100.00;96103.66;5002276;28;20524;-67
2023/01/17 03:23:01;;;;;;;5.53;1.45;;;;;;;1.42;100.00;96106.16;5002229;28;20029;-67
2023/01/17 03:25:26;;;;;;;7.30;1.50;;;;;;;1.43;100.00;96102.44;5004400;28;20026;-67
2023/01/17 03:27:52;;;;;;;5.75;1.98;;;;;;;1.45;100.00;96099.56;5001305;28;20041;-67
2023/01/17 03:30:19;;;;;;;3.50;1.15;;;;;;;1.43;100.00;96096.31;4998631;28;20033;-68
2023/01/17 03:32:44;;;;;;;5.38;1.30;;;;;;;1.51;100.00;96101.38;4998348;28;20117;-69
2023/01/17 03:35:11;;;;;;;1.77;0.95;;;;;;;1.52;100.00;96093.19;4993107;28;20489;-69
2023/01/17 03:37:36;;;;;;;2.33;1.00;;;;;;;1.46;100.00;96107.34;5000349;28;20076;-69
2023/01/17 03:40:02;;;;;;;2.97;1.08;;;;;;;1.45;100.00;96111.03;5005122;28;20030;-69
2023/01/17 03:42:27;;;;;;;5.93;1.00;;;;;;;1.45;100.00;96110.22;5002503;28;20474;-68
2023/01/17 03:44:53;;;;;;;2.33;1.10;;;;;;;1.41;100.00;96096.50;4992742;28;20113;-68
2023/01/17 03:47:18;;;;;;;4.07;1.30;;;;;;;1.43;100.00;96106.97;5001805;28;20363;-69
2023/01/17 03:49:43;;;;;;;3.10;1.15;;;;;;;1.41;100.00;96107.16;4998347;28;20022;-69
2023/01/17 03:52:09;;;;;;;2.72;1.20;;;;;;;1.43;100.00;96112.28;4992978;28;20037;-69
2023/01/17 03:54:34;;;;;;;3.15;1.52;;;;;;;1.43;100.00;96120.28;4998588;28;20429;-69
2023/01/17 03:57:00;;;;;;;3.42;1.50;;;;;;;1.39;100.00;96109.25;4997568;28;20056;-69
2023/01/17 03:59:25;;;;;;;3.22;1.38;;;;;;;1.37;100.00;96121.94;5000217;28;20030;-69
2023/01/17 04:01:50;;;;;;;2.38;1.48;;;;;;;1.48;100.00;96128.47;4992530;28;20036;-69
2023/01/17 04:04:16;;;;;;;5.13;1.45;;;;;;;1.44;100.00;96117.41;4993125;28;20097;-69
2023/01/17 04:06:41;;;;;;;3.83;1.48;;;;;;;1.46;100.00;96126.00;5001034;28;20030;-69
2023/01/17 04:09:07;;;;;;;4.28;1.40;;;;;;;1.42;100.00;96119.47;4995885;28;20080;-69
2023/01/17 04:11:32;;;;;;;4.45;1.52;;;;;;;1.41;100.00;96130.31;5003581;28;20119;-68
2023/01/17 04:13:58;;;;;;;2.20;1.20;;;;;;;1.43;100.00;96125.59;4993820;28;20378;-68
2023/01/17 04:16:28;;;;;;;2.70;1.10;;;;;;;1.42;100.00;96127.47;4999044;28;20045;-68
2023/01/17 04:18:53;;;;;;;4.07;1.00;;;;;;;1.38;100.00;96120.09;4995321;28;20448;-68
2023/01/17 04:21:19;;;;;;;6.35;1.60;;;;;;;1.33;100.00;96123.38;4996306;28;20026;-69
2023/01/17 04:23:44;;;;;;;2.30;1.42;;;;;;;1.29;100.00;96122.19;5002256;28;20409;-68
2023/01/17 04:26:11;;;;;;;6.82;2.03;;;;;;;1.28;100.00;96115.22;4997764;28;20141;-68
2023/01/17 04:28:37;;;;;;;3.35;1.40;;;;;;;1.30;100.00;96118.47;5010734;28;20377;-69
2023/01/17 04:31:02;;;;;;;5.13;1.60;;;;;;;1.27;100.00;96125.06;5008855;28;20029;-69
2023/01/17 04:33:28;;;;;;;2.63;1.30;;;;;;;1.26;100.00;96127.94;4999450;28;20030;-69
2023/01/17 04:35:54;;;;;;;2.03;1.13;;;;;;;1.30;100.00;96126.47;5004725;28;20050;-69
2023/01/17 04:38:20;;;;;;;1.77;1.20;;;;;;;1.29;100.00;96124.84;5007355;28;20037;-69
2023/01/17 04:40:45;;;;;;;3.67;1.70;;;;;;;1.25;100.00;96132.41;4997926;28;20398;-69
2023/01/17 04:43:10;;;;;;;2.72;1.13;;;;;;;1.22;100.00;96134.69;5001378;28;20030;-69
2023/01/17 04:45:37;;;;;;;3.03;1.40;;;;;;;1.26;100.00;96125.28;5026526;28;20026;-68
2023/01/17 04:48:11;;;;;;;3.95;1.40;;;;;;;1.16;100.00;96122.25;5005983;28;20028;-68
2023/01/17 04:50:37;;;;;;;3.83;1.13;;;;;;;1.12;100.00;96121.00;5005189;28;20460;-68
2023/01/17 04:53:03;;;;;;;5.35;1.77;;;;;;;1.12;100.00;96123.66;5014103;28;20033;-68
2023/01/17 04:55:28;;;;;;;2.70;1.60;;;;;;;1.08;100.00;96128.59;5004588;28;20099;-68
2023/01/17 04:57:54;;;;;;;2.63;1.20;;;;;;;1.09;100.00;96131.03;5004234;28;20548;-69
2023/01/17 05:00:20;;;;;;;4.15;1.20;;;;;;;1.16;100.00;96133.69;5007142;28;20489;-67
2023/01/17 05:03:10;;;;;;;2.30;1.25;;;;;;;1.19;100.00;96143.13;5010403;28;20485;-67
2023/01/17 05:05:35;;;;;;;2.55;1.27;;;;;;;1.26;100.00;96151.91;5010057;28;20021;-67
2023/01/17 05:08:06;;;;;;;2.55;1.00;;;;;;;1.23;100.00;96150.47;5014718;28;20437;-67
2023/01/17 05:10:45;;;;;;;2.40;1.23;;;;;;;1.14;100.00;96150.91;5005631;28;20026;-67
2023/01/17 05:13:10;;;;;;;2.05;1.10;;;;;;;1.05;100.00;96147.66;4999006;28;20485;-67
2023/01/17 05:15:36;;;;;;;2.15;1.20;;;;;;;0.92;100.00;96148.50;5013211;28;20037;-67
2023/01/17 05:18:06;;;;;;;2.13;1.20;;;;;;;0.80;100.00;96147.50;5001944;28;20551;-67
2023/01/17 05:20:31;;;;;;;2.00;1.35;;;;;;;0.71;100.00;96148.72;5009285;28;20080;-67
2023/01/17 05:22:56;;;;;;;6.28;1.77;;;;;;;0.62;100.00;96148.94;5005587;28;20054;-66
2023/01/17 05:25:28;;;;;;;3.38;1.45;;;;;;;0.53;100.00;96136.06;5002783;28;20371;-67
2023/01/17 05:27:53;;;;;;;3.22;1.42;;;;;;;0.45;100.00;96134.44;5000726;28;20097;-67
2023/01/17 05:30:19;;;;;;;4.13;1.35;;;;;;;0.35;100.00;96128.72;4999820;28;20034;-67
2023/01/17 05:32:50;;;;;;;3.13;1.63;;;;;;;0.25;100.00;96137.09;5002983;28;20030;-67
2023/01/17 05:35:20;;;;;;;6.32;2.15;;;;;;;0.20;100.00;96136.88;5004154;28;20462;-67
2023/01/17 05:37:48;;;;;;;6.22;2.17;;;;;;;0.13;100.00;96128.91;5007613;28;20029;-67
2023/01/17 05:40:32;;;;;;;2.33;1.42;;;;;;;0.21;100.00;96136.69;5012683;28;20030;-67
2023/01/17 05:42:59;;;;;;;3.58;1.48;;;;;;;0.22;100.00;96132.19;4994551;28;20026;-67
2023/01/17 05:45:27;;;;;;;2.75;1.63;;;;;;;0.22;100.00;96124.22;5003619;28;20084;-67
2023/01/17 05:47:54;;;;;;;2.42;1.45;;;;;;;0.17;100.00;96134.63;5004869;28;20080;-67
2023/01/17 05:50:26;;;;;;;2.50;1.50;;;;;;;0.15;100.00;96128.69;4998516;28;20373;-67
2023/01/17 05:52:54;;;;;;;2.70;1.33;;;;;;;0.11;100.00;96130.97;5012496;28;20079;-67
2023/01/17 05:55:23;;;;;;;2.83;1.15;;;;;;;-0.15;100.00;96130.94;5005770;28;20413;-67
2023/01/17 05:57:49;;;;;;;1.70;0.77;;;;;;;-0.33;100.00;96134.97;5004192;28;20033;-67
2023/01/17 06:00:16;;;;;;;2.22;1.30;;;;;;;-0.56;100.00;96134.50;5006603;28;20397;-68
2023/01/17 06:02:42;;;;;;;4.10;1.80;;;;;;;-0.72;100.00;96125.84;4997347;28;20085;-67
2023/01/17 06:05:07;;;;;;;2.58;1.30;;;;;;;-0.94;100.00;96121.69;5010994;28;20029;-68
2023/01/17 06:07:33;;;;;;;3.20;1.50;;;;;;;-1.21;100.00;96129.47;5000007;28;20266;-67
2023/01/17 06:09:58;;;;;;;5.82;1.50;;;;;;;-1.44;100.00;96118.31;5001850;28;20018;-67
2023/01/17 06:12:24;;;;;;;2.85;1.50;;;;;;;-1.50;100.00;96132.38;5008394;28;20026;-68
2023/01/17 06:14:49;;;;;;;2.80;1.30;;;;;;;-1.61;100.00;96133.72;4997864;28;20085;-67
2023/01/17 06:17:15;;;;;;;3.10;1.67;;;;;;;-1.61;100.00;96131.06;5002672;28;20115;-67
2023/01/17 06:19:40;;;;;;;4.32;2.10;;;;;;;-1.64;100.00;96132.25;5004322;28;20385;-67
2023/01/17 06:22:06;;;;;;;3.92;2.08;;;;;;;-1.51;100.00;96133.38;5004295;28;20076;-67
2023/01/17 06:24:32;;;;;;;7.95;3.03;;;;;;;-1.46;100.00;96131.78;4998469;28;20113;-67
2023/01/17 06:26:58;;;;;;;5.53;2.72;;;;;;;-1.41;100.00;96133.88;5015546;28;20022;-67
2023/01/17 06:29:24;;;;;;;7.85;3.33;;;;;;;-1.42;100.00;96127.72;5015137;28;20018;-67
2023/01/17 06:31:50;;;;;;;4.35;2.55;;;;;;;-1.50;100.00;96122.56;4980254;28;20023;-67
2023/01/17 06:34:15;;;;;;;5.75;2.58;;;;;;;-1.49;100.00;96112.78;5004552;28;20030;-67
2023/01/17 06:36:41;;;;;;;6.97;3.10;;;;;;;-1.48;100.00;96117.09;5006351;28;20496;-67
2023/01/17 06:39:06;;;;;;;6.75;3.20;;;;;;;-1.48;100.00;96119.72;5008960;28;20034;-67
2023/01/17 06:41:32;;;;;;;3.83;2.38;;;;;;;-1.55;100.00;96109.91;5006671;28;20032;-67
2023/01/17 06:43:57;;;;;;;5.18;2.72;;;;;;;-1.57;100.00;96109.28;5000233;28;20104;-67
2023/01/17 06:46:23;;;;;;;4.20;2.58;;;;;;;-1.58;100.00;96104.97;5003250;28;20065;-67
2023/01/17 06:48:48;;;;;;;3.58;2.30;;;;;;;-1.55;100.00;96107.25;5001143;28;20022;-67
2023/01/17 06:51:14;;;;;;;5.95;2.40;;;;;;;-1.46;100.00;96107.13;5006131;28;20385;-67
2023/01/17 06:53:40;;;;;;;6.18;2.47;;;;;;;-1.40;100.00;96108.97;5009203;28;20021;-67
2023/01/17 06:56:06;;;;;;;4.03;1.70;;;;;;;-1.49;100.00;96102.16;5014626;28;20466;-68
2023/01/17 06:58:31;;;;;;;4.20;2.20;;;;;;;-1.51;100.00;96104.22;5001139;28;20398;-67
2023/01/17 07:00:56;;;;;;;6.97;2.60;;;;;;;-1.56;100.00;96107.44;5004653;28;20036;-67
2023/01/17 07:03:24;;;;;;;5.75;2.63;;;;;;;-1.70;100.00;96111.84;5006215;28;20376;-68
2023/01/17 07:05:50;;;;;;;4.13;2.10;;;;;;;-1.86;100.00;96112.94;5000118;28;20038;-67
2023/01/17 07:08:17;;;;;;;7.93;2.65;;;;;;;-1.93;100.00;96105.94;5005354;28;20026;-67
2023/01/17 07:10:46;;;;;;;6.00;2.40;;;;;;;-1.81;100.00;96105.25;5008458;28;20037;-63
2023/01/17 07:13:12;;;;;;;3.85;2.28;;;;;;;-1.74;100.00;96102.63;5000692;28;20030;-63
2023/01/17 07:15:38;;;;;;;4.18;2.78;;;;;;;-1.74;100.00;96107.94;5002856;28;20029;-63
2023/01/17 07:18:05;;;;;;;4.13;2.13;;;;;;;-1.71;100.00;96101.41;5004334;28;20113;-63
2023/01/17 07:20:32;;;;;;;8.20;2.60;;;;;;;-1.70;100.00;96090.63;4999906;28;20435;-63
2023/01/17 07:22:58;;;;;;;4.85;2.80;;;;;;;-1.66;100.00;96094.53;5001339;28;20022;-63
2023/01/17 07:25:23;;;;;;;5.88;2.53;;;;;;;-1.73;100.00;96101.59;5000361;28;20506;-63
2023/01/17 07:27:53;;;;;;;4.80;2.50;;;;;;;-1.72;100.00;96100.59;5008285;28;20033;-63
2023/01/17 07:30:18;;;;;;;5.53;3.00;;;;;;;-1.78;100.00;96099.56;4996986;28;20026;-63
2023/01/17 07:32:49;;;;;;;5.50;2.28;;;;;;;-1.72;100.00;96105.91;4996618;28;20037;-63
2023/01/17 07:35:15;;;;;;;5.15;2.35;;;;;;;-1.65;100.00;96108.59;4993818;28;20386;-62
2023/01/17 07:37:46;;;;;;;8.70;2.35;;;;;;;-1.53;100.00;96100.94;5003777;28;20022;-62
2023/01/17 07:40:12;;;;;;;14.48;2.42;;;;;;;-1.41;100.00;96105.50;5004949;28;20042;-63
2023/01/17 07:42:37;;;;;;;5.75;2.45;;;;;;;-1.21;100.00;96102.13;5003664;28;20030;-63
2023/01/17 07:45:03;;;;;;;5.70;2.70;;;;;;;-0.97;100.00;96100.81;5002263;28;20033;-62
2023/01/17 07:47:29;;;;;;;7.25;2.83;;;;;;;-0.76;100.00;96098.06;5007217;28;20064;-62
2023/01/17 07:49:54;;;;;;;5.68;2.65;;;;;;;-0.57;100.00;96074.44;5004644;28;20510;-62
2023/01/17 07:52:20;;;;;;;5.63;2.70;;;;;;;-0.44;100.00;96074.47;5006212;28;20034;-63
2023/01/17 07:54:45;;;;;;;6.72;3.15;;;;;;;-0.22;100.00;96065.28;5007114;28;20520;-63
2023/01/17 07:57:11;;;;;;;7.97;3.13;;;;;;;-0.04;100.00;96067.34;5003355;28;20032;-62
2023/01/17 07:59:36;;;;;;;6.13;2.35;;;;;;;0.13;100.00;96059.81;4997553;28;20026;-62
2023/01/17 08:02:02;;;;;;;7.85;2.85;;;;;;;0.33;100.00;96056.28;5007368;28;20041;-62
2023/01/17 08:04:33;;;;;;;10.45;2.97;;;;;;;0.49;100.00;96052.38;5004351;28;20441;-62
2023/01/17 08:06:59;;;;;;;7.72;2.85;;;;;;;0.49;100.00;96047.88;5005442;28;20050;-62
2023/01/17 08:09:24;;;;;;;6.43;2.10;;;;;;;0.60;100.00;96039.28;5009631;28;20021;-63
2023/01/17 08:11:50;;;;;;;7.45;1.80;;;;;;;0.50;100.00;96043.38;4998375;28;20026;-62
2023/01/17 08:14:15;;;;;;;4.70;2.20;;;;;;;0.57;100.00;96052.16;4999480;28;20030;-62
2023/01/17 08:16:41;;;;;;;4.25;2.13;;;;;;;0.53;100.00;96054.44;5006691;28;20059;-63
2023/01/17 08:19:06;;;;;;;3.67;1.48;;;;;;;0.56;100.00;96054.00;5005567;28;20033;-62
2023/01/17 08:21:31;;;;;;;2.95;1.35;;;;;;;0.54;100.00;96044.59;5003404;28;20026;-63
2023/01/17 08:23:57;;;;;;;6.13;1.98;;;;;;;0.54;100.00;96040.09;5012180;28;20025;-62
2023/01/17 08:26:23;;;;;;;7.72;2.35;;;;;;;0.64;100.00;96055.63;5012513;28;20036;-62
2023/01/17 08:28:54;;;;;;;5.65;2.20;;;;;;;0.76;100.00;96043.31;5014597;28;20022;-63
2023/01/17 08:31:20;;;;;;;6.03;1.95;;;;;;;0.72;100.00;96044.75;5006506;28;20137;-63
2023/01/17 08:33:46;;;;;;;4.22;1.85;;;;;;;0.77;100.00;96044.94;5003671;28;20021;-62
2023/01/17 08:36:11;;;;;;;5.20;2.40;;;;;;;1.15;100.00;96038.03;5013668;28;20057;-62
2023/01/17 08:38:36;;;;;;;3.55;1.60;;;;;;;1.79;100.00;96029.06;5013020;28;20362;-62
2023/01/17 08:41:02;;;;;;;4.93;1.92;;;;;;;2.34;100.00;96021.22;5013606;28;20100;-63
2023/01/17 08:43:27;;;;;;;9.95;3.10;;;;;;;2.71;100.00;96021.25;5009765;28;20068;-62
2023/01/17 08:45:54;;;;;;;4.90;2.38;;;;;;;3.08;100.00;96035.38;5006375;28;20030;-63
2023/01/17 08:48:23;;;;;;;3.92;2.17;;;;;;;3.37;100.00;96029.50;5012894;28;20429;-63
2023/01/17 08:51:02;;;;;;;3.90;2.05;;;;;;;3.08;100.00;96026.56;5012259;28;20022;-63
2023/01/17 08:53:28;;;;;;;7.00;2.20;;;;;;;3.19;100.00;96027.66;5002490;28;20052;-63
2023/01/17 08:56:04;;;;;;;5.13;1.98;;;;;;;3.26;100.00;96028.41;5008756;28;20037;-63
2023/01/17 08:58:31;;;;;;;5.60;2.72;;;;;;;3.39;100.00;96035.44;5007580;28;20030;-63
2023/01/17 09:01:01;;;;;;;4.38;1.80;;;;;;;3.47;100.00;96032.44;5003251;28;20052;-63
2023/01/17 09:03:27;;;;;;;3.50;1.27;;;;;;;3.62;100.00;96032.03;5007675;28;20037;-63
2023/01/17 09:06:10;;;;;;;3.35;1.50;;;;;;;3.70;100.00;96029.84;4997577;28;20026;-63
2023/01/17 09:08:38;;;;;;;7.38;1.30;;;;;;;3.58;100.00;96029.00;4998263;28;20025;-63
2023/01/17 09:11:09;;;;;;;5.00;1.35;;;;;;;3.59;100.00;96027.97;5012180;28;20037;-63
2023/01/17 09:13:35;;;;;;;5.43;1.42;;;;;;;3.86;100.00;96035.59;5003100;28;20030;-63
2023/01/17 09:16:01;;;;;;;3.75;1.20;;;;;;;3.93;100.00;96020.25;4999199;28;20482;-66
2023/01/17 09:18:28;;;;;;;2.83;1.35;;;;;;;3.65;100.00;96002.16;5054746;23;20062;-76
2023/01/17 09:20:54;;;;;;;4.72;1.30;;;;;;;3.48;100.00;96015.34;5029399;28;20489;-76
2023/01/17 09:23:27;;;;;;;3.20;1.38;;;;;;;3.70;100.00;96027.19;5048331;28;20040;-77
2023/01/17 09:25:56;;;;;;;2.10;1.27;;;;;;;3.97;100.00;96001.88;5046856;28;20398;-78
2023/01/17 09:28:22;;;;;;;3.72;1.50;;;;;;;4.83;100.00;96016.44;5027327;28;20036;-77
2023/01/17 09:30:47;;;;;;;9.38;1.77;;;;;;;6.01;100.00;96018.69;5031754;28;20029;-72
2023/01/17 09:33:14;;;;;;;4.05;1.58;;;;;;;6.95;100.00;96012.56;5043055;28;20029;-78
2023/01/17 09:35:39;;;;;;;4.07;2.25;;;;;;;8.75;100.00;96015.94;5047754;28;20437;-77
2023/01/17 09:38:05;;;;;;;5.60;2.10;;;;;;;10.86;81.41;95991.00;5042125;28;20028;-77
2023/01/17 09:40:30;;;;;;;5.63;1.70;;;;;;;10.90;72.86;95989.38;5034966;28;20029;-73
2023/01/17 09:43:04;;;;;;;4.88;1.58;;;;;;;10.48;68.42;96006.75;5051967;28;20029;-75
2023/01/17 09:45:32;;;;;;;6.13;1.98;;;;;;;10.98;68.96;95999.63;5021668;28;20028;-76
2023/01/17 09:48:00;;;;;;;3.47;1.48;;;;;;;12.39;60.96;95978.56;5030467;28;20083;-75
2023/01/17 09:50:32;;;;;;;7.10;1.73;;;;;;;15.11;52.71;95996.38;5029678;28;20071;-76
2023/01/17 09:53:01;;;;;;;7.70;3.13;;;;;;;16.34;49.42;95974.69;5023145;28;20029;-76
2023/01/17 09:55:38;;;;;;;;;;;;;;;17.11;45.45;95991.91;5023260;28;20035;-75
2023/01/17 09:58:40;;;;;;;6.60;1.85;;;;;;;17.10;43.94;95982.06;5043066;28;19967;-75
2023/01/17 10:01:17;;;;;;;4.45;1.45;;;;;;;17.67;42.47;95971.19;5003318;28;20041;-75
2023/01/17 10:04:06;;;;;;;2.13;1.10;;;;;;;16.84;42.37;95963.63;5018432;28;20021;-74
2023/01/17 10:07:11;;;;;;;3.83;1.50;;;;;;;18.20;40.21;95976.75;5021425;28;20029;-74
2023/01/17 10:09:55;;;;;;;2.63;1.13;;;;;;;18.24;39.79;95970.31;5012083;28;20168;-78
2023/01/17 10:12:49;;;;;;;3.78;1.38;;;;;;;18.47;37.81;95973.69;5017910;28;20034;-81
2023/01/17 10:15:34;;;;;;;4.40;1.40;;;;;;;18.58;38.49;95960.47;5033220;28;20025;-79
2023/01/17 10:18:13;;;;;;;3.65;1.48;;;;;;;18.26;38.50;95969.97;5027283;28;20021;-79
2023/01/17 10:20:48;;;;;;;5.35;1.40;;;;;;;18.22;38.22;95949.88;5029434;28;20097;-75
2023/01/17 10:23:32;;;;;;;2.97;0.80;;;;;;;18.24;37.08;95955.84;5053396;28;20028;-78
2023/01/17 10:26:01;;;;;;;2.50;0.90;;;;;;;18.92;36.16;95945.13;5034204;28;20391;-77
2023/01/17 10:28:33;;;;;;;2.08;0.95;;;;;;;18.37;36.87;95952.13;5015045;28;20028;-76
2023/01/17 10:31:06;;;;;;;2.78;0.80;;;;;;;18.62;34.89;95937.56;5022071;28;20041;-78
2023/01/17 10:33:48;;;;;;;1.42;0.70;;;;;;;19.44;34.84;95932.00;5037502;28;20021;-76
2023/01/17 10:36:19;;;;;;;2.40;0.70;;;;;;;20.17;32.33;95930.06;5050347;28;20017;-78
2023/01/17 10:38:47;;;;;;;2.75;0.70;;;;;;;20.36;33.10;95909.22;5042350;28;20023;-75
2023/01/17 10:41:12;;;;;;;4.03;0.50;;;;;;;20.04;33.03;95923.69;5021758;28;20029;-79
2023/01/17 10:43:49;;;;;;;1.60;0.77;;;;;;;21.04;31.74;95916.28;5029905;28;20063;-79
2023/01/17 10:46:40;;;;;;;0.75;0.35;;;;;;;22.02;31.05;95907.97;5038726;28;20284;-81
2023/01/17 10:49:15;;;;;;;1.83;0.68;;;;;;;21.23;31.25;95902.78;5007653;28;20053;-79
2023/01/17 10:51:48;;;;;;;1.75;0.70;;;;;;;21.63;30.72;95910.34;5039773;28;20418;-73
2023/01/17 10:54:16;;;;;;;2.03;0.43;;;;;;;22.41;29.48;95910.28;5032354;28;20025;-73
2023/01/17 10:56:42;;;;;;;0.65;0.35;;;;;;;21.20;29.67;95892.47;5034026;28;20025;-73
2023/01/17 10:59:33;;;;;;;1.73;0.40;;;;;;;22.21;28.09;95896.34;5042725;28;20025;-80
2023/01/17 11:02:05;;;;;;;1.20;0.50;;;;;;;20.91;28.12;95895.44;5030119;28;20513;-72
2023/01/17 11:04:40;;;;;;;0.55;0.30;;;;;;;21.00;30.18;95893.38;5022109;28;20036;-77
2023/01/17 11:07:24;;;;;;;2.80;0.70;;;;;;;20.84;29.07;95886.94;5019363;28;20021;-75
2023/01/17 11:09:52;;;;;;;3.95;0.40;;;;;;;19.79;28.78;95901.63;5031371;28;20021;-78
2023/01/17 11:12:19;;;;;;;2.40;0.30;;;;;;;20.78;28.58;95875.38;5037079;28;20043;-77
2023/01/17 11:14:53;;;;;;;1.48;0.30;;;;;;;19.13;29.27;95888.44;5021382;28;20080;-76
2023/01/17 11:17:18;;;;;;;0.73;0.35;;;;;;;19.70;28.39;95865.19;5041264;28;20028;-78
2023/01/17 11:19:50;;;;;;;1.50;0.40;;;;;;;20.09;29.27;95872.16;5046031;28;20029;-81
2023/01/17 11:22:16;;;;;;;1.10;0.40;;;;;;;21.65;28.93;95885.25;5039663;28;20021;-78
2023/01/17 11:24:50;;;;;;;4.22;0.68;;;;;;;22.34;27.68;95877.03;5035010;28;20362;-77
2023/01/17 11:27:30;;;;;;;2.17;0.57;;;;;;;21.50;27.14;95875.75;5053875;28;20024;-74
2023/01/17 11:30:15;;;;;;;1.30;0.50;;;;;;;20.13;28.36;95858.56;5025314;28;20066;-75
2023/01/17 11:33:03;;;;;;;1.83;0.45;;;;;;;22.08;26.90;95865.28;5048389;28;20051;-76
2023/01/17 11:35:33;;;;;;;4.45;0.50;;;;;;;21.70;25.83;95870.47;5032336;28;20025;-77
2023/01/17 11:38:15;;;;;;;3.00;0.40;;;;;;;21.32;26.46;95844.09;5038466;28;20029;-75
2023/01/17 11:40:45;;;;;;;2.97;0.40;;;;;;;20.36;26.88;95857.03;5041511;28;20076;-78
2023/01/17 11:43:10;;;;;;;1.23;0.30;;;;;;;19.95;28.25;95855.16;5037891;28;20723;-73
2023/01/17 11:45:37;;;;;;;1.00;0.30;;;;;;;18.92;28.56;95841.81;5039608;28;20076;-78
2023/01/17 11:48:12;;;;;;;0.88;0.30;;;;;;;17.05;30.38;95853.84;5026025;28;20607;-80
2023/01/17 11:50:44;;;;;;;0.30;0.20;;;;;;;15.84;31.94;95830.25;5053353;28;20480;-74
2023/01/17 11:53:17;;;;;;;2.47;0.47;;;;;;;16.01;31.79;95843.22;5017600;28;20095;-76
2023/01/17 11:55:55;;;;;;;1.77;0.40;;;;;;;15.52;32.46;95850.34;5048037;28;20064;-75
2023/01/17 11:58:22;;;;;;;1.42;0.30;;;;;;;15.20;32.63;95843.19;5031698;28;20117;-76
2023/01/17 12:00:57;;;;;;;1.58;0.32;;;;;;;14.61;32.89;95819.31;5027132;28;20029;-75
2023/01/17 12:03:22;;;;;;;0.47;0.30;;;;;;;15.20;33.57;95829.56;5036689;28;20021;-76
2023/01/17 12:06:19;;;;;;;1.13;0.30;;;;;;;14.68;32.56;95827.88;5037574;28;20399;-76
2023/01/17 12:09:07;;;;;;;4.38;0.38;;;;;;;15.22;32.99;95825.41;5021176;28;20045;-76
2023/01/17 12:11:36;;;;;;;2.30;0.80;;;;;;;16.58;32.63;95820.72;5025980;28;20029;-76
2023/01/17 12:14:30;;;;;;;0.75;0.30;;;;;;;17.24;31.73;95810.66;5052820;28;20033;-76
2023/01/17 12:17:19;;;;;;;1.65;0.35;;;;;;;18.03;30.51;95806.00;5020114;28;20025;-76
2023/01/17 12:20:03;;;;;;;1.83;0.70;;;;;;;18.22;29.81;95791.16;5048265;28;20033;-76
2023/01/17 12:22:41;;;;;;;1.88;0.70;;;;;;;18.63;30.73;95790.53;5036595;28;20033;-76
2023/01/17 12:25:13;;;;;;;2.20;0.30;;;;;;;18.56;30.61;95788.28;5044819;28;20044;-76
2023/01/17 12:28:12;;;;;;;3.25;0.60;;;;;;;19.21;28.82;95783.44;5031587;28;20033;-75
2023/01/17 12:31:13;;;;;;;2.63;0.52;;;;;;;20.48;28.28;95764.84;5026588;28;20479;-78
2023/01/17 12:34:04;;;;;;;1.50;0.50;;;;;;;18.70;28.77;95763.41;5020682;28;20037;-77
2023/01/17 12:36:38;;;;;;;2.33;0.40;;;;;;;17.45;30.17;95758.13;5027261;28;20029;-77
2023/01/17 12:39:09;;;;;;;1.25;0.38;;;;;;;16.05;30.92;95767.84;5044614;28;20028;-77
2023/01/17 12:41:40;;;;;;;0.82;0.30;;;;;;;14.20;34.53;95771.13;5028272;28;20056;-76
2023/01/17 12:44:12;;;;;;;5.00;0.40;;;;;;;12.84;35.88;95768.41;5027223;28;20071;-76
2023/01/17 12:46:59;;;;;;;1.77;0.70;;;;;;;11.67;37.95;95734.50;5033056;28;20048;-76
2023/01/17 12:50:00;;;;;;;1.80;0.50;;;;;;;11.51;41.42;95775.25;5044400;28;20017;-74
2023/01/17 12:52:48;;;;;;;1.33;0.50;;;;;;;10.47;39.91;95762.66;5024527;28;20428;-74
2023/01/17 12:55:33;;;;;;;1.15;0.40;;;;;;;10.10;41.99;95763.84;5018559;28;20163;-75
2023/01/17 12:58:03;;;;;;;3.70;0.85;;;;;;;9.82;41.27;95729.34;5037402;28;20040;-75
2023/01/17 13:00:30;;;;;;;2.08;0.68;;;;;;;9.79;41.74;95746.91;5027406;28;20017;-76
2023/01/17 13:03:03;;;;;;;0.98;0.40;;;;;;;9.70;42.79;95759.38;5021260;28;20038;-75
2023/01/17 13:05:34;;;;;;;0.52;0.30;;;;;;;9.73;42.53;95749.91;5034216;28;20111;-77
2023/01/17 13:08:35;;;;;;;3.05;0.73;;;;;;;9.35;43.55;95738.59;5029870;28;20029;-76
2023/01/17 13:11:06;;;;;;;0.52;0.30;;;;;;;9.24;43.85;95728.91;5033019;28;20491;-73
2023/01/17 13:13:34;;;;;;;3.50;0.40;;;;;;;8.95;44.50;95727.53;5032678;28;20055;-76